createdAt,value
2022-09-26T00:00:53.490Z,0.90
2022-09-26T00:03:22.628Z,1.00
2022-09-26T00:05:49.369Z,1.23
2022-09-26T00:08:16.049Z,1.10
2022-09-26T00:10:42.818Z,1.08
2022-09-26T00:13:09.543Z,2.28
2022-09-26T00:15:36.338Z,1.40
2022-09-26T00:18:03.102Z,0.90
2022-09-26T00:20:29.819Z,0.90
2022-09-26T00:22:56.588Z,1.20
2022-09-26T00:25:23.343Z,1.42
2022-09-26T00:27:50.198Z,1.23
2022-09-26T00:30:16.931Z,1.10
2022-09-26T00:32:43.707Z,1.35
2022-09-26T00:35:10.410Z,1.00
2022-09-26T00:37:37.148Z,1.02
2022-09-26T00:40:04.216Z,1.10
2022-09-26T00:42:31.046Z,1.10
2022-09-26T00:44:57.809Z,1.00
2022-09-26T00:47:38.757Z,1.15
2022-09-26T00:50:19.146Z,0.98
2022-09-26T00:52:56.208Z,2.38
2022-09-26T00:55:24.511Z,1.30
2022-09-26T00:57:59.384Z,0.95
2022-09-26T01:00:26.119Z,0.85
2022-09-26T01:02:52.950Z,0.85
2022-09-26T01:05:20.818Z,1.13
2022-09-26T01:07:47.736Z,1.27
2022-09-26T01:10:16.183Z,1.27
2022-09-26T01:12:43.896Z,0.95
2022-09-26T01:15:11.008Z,1.33
2022-09-26T01:17:38.642Z,1.30
2022-09-26T01:20:20.916Z,1.10
2022-09-26T01:22:59.695Z,1.48
2022-09-26T01:25:55.963Z,1.25
2022-09-26T01:28:48.404Z,1.40
2022-09-26T01:31:29.066Z,1.40
2022-09-26T01:34:08.119Z,1.80
2022-09-26T01:36:49.759Z,1.25
2022-09-26T01:39:53.533Z,1.10
2022-09-26T01:42:47.920Z,1.30
2022-09-26T01:45:20.744Z,1.13
2022-09-26T01:48:05.590Z,1.27
2022-09-26T01:50:44.142Z,1.50
2022-09-26T01:53:15.281Z,1.60
2022-09-26T01:56:05.745Z,0.77
2022-09-26T01:58:39.100Z,1.17
2022-09-26T02:01:09.110Z,0.90
2022-09-26T02:03:38.356Z,1.17
2022-09-26T02:06:13.361Z,1.80
2022-09-26T02:08:53.997Z,1.48
2022-09-26T02:11:21.650Z,0.93
2022-09-26T02:13:55.928Z,1.17
2022-09-26T02:16:36.666Z,1.58
2022-09-26T02:19:07.809Z,1.55
2022-09-26T02:21:34.525Z,1.02
2022-09-26T02:24:01.572Z,0.95
2022-09-26T02:26:28.722Z,1.23
2022-09-26T02:28:56.534Z,1.35
2022-09-26T02:31:24.611Z,1.00
2022-09-26T02:33:52.316Z,1.48
2022-09-26T02:36:19.712Z,1.60
2022-09-26T02:38:46.420Z,1.23
2022-09-26T02:41:29.588Z,1.10
2022-09-26T02:44:22.050Z,1.40
2022-09-26T02:47:06.650Z,1.10
2022-09-26T02:49:46.110Z,1.30
2022-09-26T02:52:22.011Z,1.10
2022-09-26T02:55:21.640Z,1.33
2022-09-26T02:58:36.076Z,1.08
2022-09-26T03:01:36.260Z,1.60
2022-09-26T03:04:23.132Z,0.90
2022-09-26T03:06:52.668Z,1.40
2022-09-26T03:09:19.468Z,1.33
2022-09-26T03:11:46.208Z,1.40
2022-09-26T03:14:12.929Z,1.60
2022-09-26T03:16:40.909Z,1.33
2022-09-26T03:19:29.878Z,1.05
2022-09-26T03:22:00.561Z,1.17
2022-09-26T03:24:27.470Z,1.17
2022-09-26T03:26:55.316Z,1.23
2022-09-26T03:29:22.051Z,1.58
2022-09-26T03:31:50.355Z,1.38
2022-09-26T03:34:17.566Z,1.08
2022-09-26T03:36:48.144Z,1.35
2022-09-26T03:39:15.136Z,1.33
2022-09-26T03:41:42.215Z,1.63
2022-09-26T03:44:08.944Z,1.73
2022-09-26T03:46:39.881Z,1.42
2022-09-26T03:49:07.006Z,2.05
2022-09-26T03:51:33.713Z,1.00
2022-09-26T03:54:00.467Z,1.40
2022-09-26T03:56:27.329Z,1.27
2022-09-26T03:58:55.169Z,1.80
2022-09-26T04:01:22.556Z,2.03
2022-09-26T04:03:51.053Z,1.50
2022-09-26T04:06:20.062Z,0.95
2022-09-26T04:08:48.529Z,1.40
2022-09-26T04:11:17.077Z,1.10
2022-09-26T04:13:51.981Z,1.27
2022-09-26T04:16:20.825Z,0.95
2022-09-26T04:18:47.918Z,1.17
2022-09-26T04:21:14.791Z,0.82
2022-09-26T04:23:42.166Z,2.03
2022-09-26T04:26:12.881Z,0.82
2022-09-26T04:28:40.318Z,1.23
2022-09-26T04:31:07.524Z,1.02
2022-09-26T04:33:34.526Z,1.45
2022-09-26T04:36:02.321Z,1.13
2022-09-26T04:38:32.579Z,1.55
2022-09-26T04:41:04.392Z,1.17
2022-09-26T04:43:31.332Z,1.40
2022-09-26T04:45:58.234Z,0.90
2022-09-26T04:48:25.292Z,1.20
2022-09-26T04:50:52.002Z,0.80
2022-09-26T04:53:19.345Z,0.73
2022-09-26T04:55:46.674Z,1.50
2022-09-26T04:58:13.891Z,1.10
2022-09-26T05:00:45.721Z,0.95
2022-09-26T05:03:15.458Z,0.80
2022-09-26T05:05:45.218Z,1.20
2022-09-26T05:08:12.194Z,1.00
2022-09-26T05:10:38.956Z,0.90
2022-09-26T05:13:06.129Z,1.27
2022-09-26T05:15:33.560Z,0.93
2022-09-26T05:18:00.531Z,1.20
2022-09-26T05:20:31.854Z,1.30
2022-09-26T05:22:58.774Z,1.50
2022-09-26T05:25:44.727Z,1.00
2022-09-26T05:28:14.090Z,1.25
2022-09-26T05:30:41.062Z,0.70
2022-09-26T05:33:07.802Z,1.10
2022-09-26T05:35:35.299Z,0.77
2022-09-26T05:38:03.047Z,0.93
2022-09-26T05:40:49.130Z,0.77
2022-09-26T05:43:16.272Z,0.68
2022-09-26T05:45:43.172Z,0.93
2022-09-26T05:48:09.977Z,0.95
2022-09-26T05:50:40.435Z,1.10
2022-09-26T05:53:10.392Z,0.90
2022-09-26T05:55:38.328Z,0.93
2022-09-26T05:58:06.211Z,0.90
2022-09-26T06:00:33.917Z,0.90
2022-09-26T06:03:03.868Z,0.80
2022-09-26T06:05:34.871Z,1.10
2022-09-26T06:08:02.111Z,0.98
2022-09-26T06:10:32.655Z,0.88
2022-09-26T06:13:02.931Z,0.90
2022-09-26T06:15:35.789Z,0.50
2022-09-26T06:18:04.985Z,0.80
2022-09-26T06:20:36.733Z,0.52
2022-09-26T06:23:03.957Z,0.80
2022-09-26T06:25:30.685Z,0.80
2022-09-26T06:28:00.609Z,0.80
2022-09-26T06:30:27.881Z,1.17
2022-09-26T06:32:54.780Z,0.90
2022-09-26T06:35:22.049Z,0.90
2022-09-26T06:37:48.914Z,1.08
2022-09-26T06:40:16.507Z,0.70
2022-09-26T06:42:43.588Z,0.80
2022-09-26T06:45:10.868Z,0.90
2022-09-26T06:47:38.233Z,1.95
2022-09-26T06:50:08.447Z,0.80
2022-09-26T06:52:36.539Z,0.90
2022-09-26T06:55:03.709Z,0.70
2022-09-26T06:57:37.782Z,0.65
2022-09-26T07:00:07.994Z,0.85
2022-09-26T07:02:36.110Z,0.93
2022-09-26T07:05:05.769Z,0.80
2022-09-26T07:07:33.218Z,1.10
2022-09-26T07:10:00.058Z,0.40
2022-09-26T07:12:31.160Z,1.08
2022-09-26T07:14:57.967Z,0.60
2022-09-26T07:17:27.340Z,0.98
2022-09-26T07:19:54.229Z,1.15
2022-09-26T07:22:21.148Z,0.98
2022-09-26T07:24:50.678Z,1.35
2022-09-26T07:27:18.458Z,1.20
2022-09-26T07:29:48.841Z,1.02
2022-09-26T07:32:16.969Z,0.85
2022-09-26T07:34:43.942Z,0.70
2022-09-26T07:37:13.600Z,1.00
2022-09-26T07:39:40.432Z,0.80
2022-09-26T07:42:07.313Z,1.13
2022-09-26T07:45:19.627Z,1.35
2022-09-26T07:47:39.454Z,1.73
2022-09-26T07:50:16.529Z,0.85
2022-09-26T07:52:46.194Z,0.90
2022-09-26T07:55:18.217Z,1.70
2022-09-26T07:57:46.469Z,1.15
2022-09-26T08:00:17.116Z,1.02
2022-09-26T08:02:46.642Z,1.50
2022-09-26T08:05:18.382Z,1.20
2022-09-26T08:07:45.777Z,2.13
2022-09-26T08:10:22.537Z,1.25
2022-09-26T08:12:53.414Z,1.50
2022-09-26T08:15:21.268Z,1.15
2022-09-26T08:17:47.990Z,1.50
2022-09-26T08:20:14.830Z,1.48
2022-09-26T08:22:41.563Z,1.52
2022-09-26T08:25:10.024Z,1.60
2022-09-26T08:27:36.884Z,1.50
2022-09-26T08:30:04.712Z,1.70
2022-09-26T08:32:32.365Z,1.58
2022-09-26T08:35:01.238Z,3.13
2022-09-26T08:37:28.630Z,3.15
2022-09-26T08:39:55.352Z,1.83
2022-09-26T08:42:41.199Z,2.83
2022-09-26T08:46:04.901Z,2.15
2022-09-26T08:48:59.562Z,2.42
2022-09-26T08:54:18.049Z,3.35
2022-09-26T08:56:54.447Z,3.92
2022-09-26T08:59:38.169Z,2.67
2022-09-26T09:02:13.697Z,2.75
2022-09-26T09:04:44.764Z,3.33
2022-09-26T09:07:23.622Z,3.63
2022-09-26T09:09:51.406Z,3.45
2022-09-26T09:12:37.920Z,2.88
2022-09-26T09:15:27.120Z,3.55
2022-09-26T09:18:30.393Z,4.10
2022-09-26T09:21:19.225Z,3.55
2022-09-26T09:23:57.620Z,5.30
2022-09-26T09:30:22.528Z,3.20
2022-09-26T09:33:35.877Z,3.92
2022-09-26T09:36:42.653Z,4.18
2022-09-26T09:39:15.073Z,4.85
2022-09-26T09:41:47.322Z,3.35
2022-09-26T09:44:32.476Z,4.25
2022-09-26T09:47:00.985Z,5.25
2022-09-26T09:49:27.874Z,4.82
2022-09-26T09:52:32.150Z,3.85
2022-09-26T09:55:16.789Z,4.72
2022-09-26T09:57:46.909Z,5.03
2022-09-26T10:00:25.274Z,5.50
2022-09-26T10:03:24.222Z,4.88
2022-09-26T10:05:55.592Z,4.20
2022-09-26T10:08:31.392Z,4.28
2022-09-26T10:11:24.220Z,5.28
2022-09-26T10:13:56.848Z,4.75
2022-09-26T10:16:25.097Z,5.22
2022-09-26T10:19:08.859Z,5.13
2022-09-26T10:21:39.940Z,4.05
2022-09-26T10:24:22.177Z,4.38
2022-09-26T10:26:50.206Z,4.10
2022-09-26T10:29:25.820Z,4.47
2022-09-26T10:31:56.498Z,3.97
2022-09-26T10:34:28.617Z,4.07
2022-09-26T10:36:58.598Z,5.35
2022-09-26T10:39:48.363Z,4.07
2022-09-26T10:42:23.125Z,4.30
2022-09-26T10:44:50.911Z,4.57
2022-09-26T10:47:19.589Z,5.07
2022-09-26T10:49:52.784Z,4.60
2022-09-26T10:52:25.737Z,4.22
2022-09-26T10:55:00.296Z,4.43
2022-09-26T10:57:33.507Z,5.50
2022-09-26T11:00:00.708Z,4.55
2022-09-26T11:02:27.693Z,6.75
2022-09-26T11:05:18.439Z,3.90
2022-09-26T11:07:47.835Z,4.40
2022-09-26T11:10:17.385Z,6.28
2022-09-26T11:13:24.656Z,4.88
2022-09-26T11:16:02.427Z,4.32
2022-09-26T11:18:52.685Z,4.15
2022-09-26T11:21:42.438Z,4.55
2022-09-26T11:24:16.709Z,4.10
2022-09-26T11:27:21.133Z,4.43
2022-09-26T11:30:09.295Z,3.85
2022-09-26T11:32:42.881Z,3.72
2022-09-26T11:35:22.825Z,3.83
2022-09-26T11:38:11.297Z,3.85
2022-09-26T11:40:40.846Z,3.30
2022-09-26T11:44:05.787Z,4.15
2022-09-26T11:46:39.996Z,3.00
2022-09-26T11:49:24.961Z,3.40
2022-09-26T11:52:34.037Z,3.20
2022-09-26T11:55:26.800Z,4.18
2022-09-26T11:58:17.983Z,2.88
2022-09-26T12:00:52.901Z,3.10
2022-09-26T12:03:36.275Z,2.75
2022-09-26T12:07:07.826Z,2.47
2022-09-26T12:09:47.596Z,2.88
2022-09-26T12:12:26.439Z,3.38
2022-09-26T12:15:20.331Z,1.83
2022-09-26T12:18:23.503Z,2.75
2022-09-26T12:21:12.891Z,1.83
2022-09-26T12:23:54.205Z,2.80
2022-09-26T12:26:49.736Z,2.70
2022-09-26T12:29:49.166Z,1.95
2022-09-26T12:32:27.843Z,2.47
2022-09-26T12:35:20.812Z,2.53
2022-09-26T12:38:06.195Z,1.85
2022-09-26T12:40:52.229Z,2.67
2022-09-26T12:43:40.830Z,1.95
2022-09-26T12:46:26.492Z,1.90
2022-09-26T12:49:25.877Z,2.72
2022-09-26T12:51:55.692Z,1.70
2022-09-26T12:54:30.000Z,1.50
2022-09-26T12:57:05.934Z,2.75
2022-09-26T12:59:38.936Z,1.15
2022-09-26T13:02:24.623Z,1.20
2022-09-26T13:05:27.878Z,1.30
2022-09-26T13:08:25.160Z,1.40
2022-09-26T13:11:03.965Z,1.27
2022-09-26T13:13:37.739Z,1.70
2022-09-26T13:18:44.998Z,1.40
2022-09-26T13:21:22.028Z,1.60
2022-09-26T13:23:57.290Z,2.88
2022-09-26T13:26:37.167Z,1.90
2022-09-26T13:29:17.552Z,1.60
2022-09-26T13:31:55.433Z,1.77
2022-09-26T13:34:29.726Z,1.70
2022-09-26T13:36:59.091Z,2.28
2022-09-26T13:39:53.015Z,1.33
2022-09-26T13:42:29.365Z,1.40
2022-09-26T13:45:00.305Z,1.50
2022-09-26T13:47:49.776Z,1.80
2022-09-26T13:50:43.431Z,1.77
2022-09-26T13:53:52.552Z,1.65
2022-09-26T13:56:35.119Z,1.95
2022-09-26T13:59:19.811Z,1.73
2022-09-26T14:02:32.081Z,1.95
2022-09-26T14:04:58.859Z,1.20
2022-09-26T14:07:56.382Z,0.98
2022-09-26T14:10:36.249Z,0.80
2022-09-26T14:13:33.669Z,0.95
2022-09-26T14:16:02.384Z,0.77
2022-09-26T14:18:50.453Z,1.20
2022-09-26T14:21:33.430Z,1.15
2022-09-26T14:24:18.999Z,1.58
2022-09-26T14:26:49.141Z,1.50
2022-09-26T14:29:28.805Z,1.40
2022-09-26T14:32:01.994Z,1.55
2022-09-26T14:34:31.055Z,2.03
2022-09-26T14:37:01.487Z,2.20
2022-09-26T14:39:40.311Z,2.55
2022-09-26T14:42:27.212Z,2.05
2022-09-26T14:44:57.453Z,1.63
2022-09-26T14:47:24.834Z,2.40
2022-09-26T14:50:00.220Z,1.73
2022-09-26T14:52:27.010Z,2.75
2022-09-26T14:54:55.384Z,1.55
2022-09-26T14:57:25.193Z,2.17
2022-09-26T14:59:51.918Z,1.90
2022-09-26T15:02:34.976Z,2.35
2022-09-26T15:05:23.490Z,2.20
2022-09-26T15:07:55.038Z,1.27
2022-09-26T15:10:40.266Z,2.00
2022-09-26T15:13:22.125Z,2.40
2022-09-26T15:15:54.432Z,2.03
2022-09-26T15:18:27.356Z,2.50
2022-09-26T15:21:00.456Z,2.07
2022-09-26T15:23:34.769Z,2.30
2022-09-26T15:26:02.820Z,2.13
2022-09-26T15:28:34.513Z,2.35
2022-09-26T15:31:48.968Z,3.17
2022-09-26T15:34:22.710Z,1.83
2022-09-26T15:36:55.238Z,2.72
2022-09-26T15:39:31.333Z,2.13
2022-09-26T15:42:25.150Z,2.50
2022-09-26T15:44:58.714Z,2.47
2022-09-26T15:47:35.173Z,2.20
2022-09-26T15:50:03.940Z,2.58
2022-09-26T15:52:32.693Z,2.67
2022-09-26T15:54:59.452Z,2.17
2022-09-26T15:57:26.913Z,1.65
2022-09-26T15:59:53.658Z,2.20
2022-09-26T16:02:23.140Z,1.83
2022-09-26T16:04:51.414Z,2.05
2022-09-26T16:07:26.463Z,2.63
2022-09-26T16:09:53.681Z,2.10
2022-09-26T16:12:29.512Z,2.00
2022-09-26T16:15:08.105Z,1.55
2022-09-26T16:17:36.284Z,2.35
2022-09-26T16:20:13.890Z,2.10
2022-09-26T16:22:46.889Z,3.10
2022-09-26T16:25:29.971Z,2.23
2022-09-26T16:27:58.740Z,2.22
2022-09-26T16:30:25.616Z,1.40
2022-09-26T16:33:11.697Z,2.65
2022-09-26T16:35:44.749Z,2.03
2022-09-26T16:38:34.413Z,2.00
2022-09-26T16:41:08.472Z,2.35
2022-09-26T16:43:36.152Z,2.10
2022-09-26T16:46:07.388Z,2.88
2022-09-26T16:48:37.365Z,2.92
2022-09-26T16:51:21.259Z,1.58
2022-09-26T16:54:08.285Z,2.20
2022-09-26T16:56:42.113Z,2.10
2022-09-26T17:01:54.586Z,1.80
2022-09-26T17:04:31.236Z,2.25
2022-09-26T17:06:59.007Z,2.20
2022-09-26T17:09:30.585Z,2.30
2022-09-26T17:12:00.933Z,1.73
2022-09-26T17:14:30.389Z,2.20
2022-09-26T17:16:58.032Z,1.80
2022-09-26T17:19:27.093Z,1.30
2022-09-26T17:21:54.926Z,0.88
2022-09-26T17:24:25.771Z,1.00
2022-09-26T17:27:02.209Z,1.20
2022-09-26T17:29:34.057Z,1.02
2022-09-26T17:32:01.177Z,1.10
2022-09-26T17:34:28.437Z,1.17
2022-09-26T17:36:56.536Z,2.55
2022-09-26T17:39:26.319Z,1.20
2022-09-26T17:41:54.078Z,1.25
2022-09-26T17:44:21.834Z,1.23
2022-09-26T17:46:52.410Z,1.77
2022-09-26T17:49:32.536Z,1.58
2022-09-26T17:52:00.995Z,1.42
2022-09-26T17:54:37.604Z,1.40
2022-09-26T17:57:08.002Z,1.52
2022-09-26T17:59:35.060Z,1.95
2022-09-26T18:02:05.728Z,1.40
2022-09-26T18:04:32.820Z,1.65
2022-09-26T18:07:01.917Z,1.95
2022-09-26T18:09:31.765Z,1.00
2022-09-26T18:12:03.120Z,2.13
2022-09-26T18:14:31.838Z,1.67
2022-09-26T18:16:59.521Z,1.90
2022-09-26T18:19:26.266Z,2.10
2022-09-26T18:21:55.390Z,2.03
2022-09-26T18:24:23.749Z,1.20
2022-09-26T18:26:50.868Z,1.35
2022-09-26T18:29:28.669Z,1.60
2022-09-26T18:31:55.471Z,1.42
2022-09-26T18:34:22.157Z,3.08
2022-09-26T18:36:49.989Z,2.10
2022-09-26T18:39:17.218Z,1.63
2022-09-26T18:41:45.181Z,2.03
2022-09-26T18:44:16.027Z,2.40
2022-09-26T18:46:44.612Z,1.70
2022-09-26T18:49:11.908Z,1.60
2022-09-26T18:51:38.602Z,1.92
2022-09-26T18:54:11.727Z,1.40
2022-09-26T18:56:57.016Z,2.30
2022-09-26T18:59:28.259Z,1.80
2022-09-26T19:01:56.274Z,1.85
2022-09-26T19:04:23.352Z,1.80
2022-09-26T19:06:58.884Z,2.05
2022-09-26T19:09:25.978Z,2.00
2022-09-26T19:11:53.299Z,1.77
2022-09-26T19:14:25.345Z,2.00
2022-09-26T19:16:52.209Z,1.98
2022-09-26T19:19:19.081Z,2.38
2022-09-26T19:22:08.184Z,1.50
2022-09-26T19:24:43.344Z,1.58
2022-09-26T19:27:16.190Z,1.75
2022-09-26T19:29:50.277Z,1.85
2022-09-26T19:32:18.261Z,1.67
2022-09-26T19:34:49.646Z,1.70
2022-09-26T19:37:16.374Z,2.03
2022-09-26T19:39:43.113Z,1.10
2022-09-26T19:42:09.903Z,1.98
2022-09-26T19:44:36.733Z,1.58
2022-09-26T19:47:04.669Z,2.35
2022-09-26T19:49:32.166Z,1.92
2022-09-26T19:52:01.221Z,1.60
2022-09-26T19:54:27.914Z,1.38
2022-09-26T19:56:54.728Z,2.17
2022-09-26T19:59:26.672Z,1.52
2022-09-26T20:01:54.270Z,1.63
2022-09-26T20:04:21.124Z,2.40
2022-09-26T20:06:47.823Z,1.35
2022-09-26T20:09:18.918Z,1.48
2022-09-26T20:11:45.838Z,1.23
2022-09-26T20:14:30.321Z,1.48
2022-09-26T20:17:00.569Z,1.40
2022-09-26T20:19:30.821Z,1.27
2022-09-26T20:21:59.857Z,1.13
2022-09-26T20:24:26.830Z,2.13
2022-09-26T20:26:53.638Z,1.50
2022-09-26T20:29:20.374Z,1.83
2022-09-26T20:31:47.434Z,1.35
2022-09-26T20:34:17.108Z,1.65
2022-09-26T20:36:49.203Z,1.23
2022-09-26T20:39:18.301Z,1.38
2022-09-26T20:41:45.103Z,1.33
2022-09-26T20:44:33.949Z,1.40
2022-09-26T20:47:01.599Z,0.80
2022-09-26T20:49:34.993Z,1.10
2022-09-26T20:52:02.767Z,1.25
2022-09-26T20:54:30.991Z,1.02
2022-09-26T20:56:58.087Z,1.10
2022-09-26T20:59:25.313Z,2.08
2022-09-26T21:01:52.629Z,1.33
2022-09-26T21:04:19.970Z,0.90
2022-09-26T21:06:46.821Z,1.10
2022-09-26T21:09:18.663Z,1.60
2022-09-26T21:11:48.124Z,0.85
2022-09-26T21:14:18.273Z,1.48
2022-09-26T21:16:48.322Z,0.73
2022-09-26T21:19:24.502Z,1.00
2022-09-26T21:21:51.605Z,1.02
2022-09-26T21:24:34.941Z,1.00
2022-09-26T21:27:01.647Z,0.97
2022-09-26T21:29:28.442Z,0.90
2022-09-26T21:31:58.470Z,0.80
2022-09-26T21:34:26.937Z,0.93
2022-09-26T21:36:55.384Z,0.98
2022-09-26T21:39:22.156Z,1.05
2022-09-26T21:41:50.696Z,0.98
2022-09-26T21:44:18.401Z,0.70
2022-09-26T21:46:45.140Z,0.77
2022-09-26T21:49:11.886Z,1.20
2022-09-26T21:51:38.691Z,1.10
2022-09-26T21:54:33.306Z,0.75
2022-09-26T21:59:37.773Z,1.08
2022-09-26T22:02:04.702Z,0.70
2022-09-26T22:04:31.647Z,1.58
2022-09-26T22:06:58.318Z,1.50
2022-09-26T22:09:25.111Z,3.20
2022-09-26T22:11:52.202Z,0.90
2022-09-26T22:14:19.054Z,0.90
2022-09-26T22:16:45.883Z,0.68
2022-09-26T22:19:12.855Z,0.55
2022-09-26T22:21:39.639Z,0.93
2022-09-26T22:24:06.525Z,0.77
2022-09-26T22:26:33.468Z,0.55
2022-09-26T22:29:00.211Z,1.17
2022-09-26T22:31:27.016Z,0.82
2022-09-26T22:33:57.763Z,0.95
2022-09-26T22:36:24.560Z,0.70
2022-09-26T22:38:51.369Z,0.80
2022-09-26T22:41:18.123Z,1.10
2022-09-26T22:43:44.898Z,0.80
2022-09-26T22:46:12.785Z,0.60
2022-09-26T22:48:41.316Z,0.70
2022-09-26T22:51:08.341Z,0.95
2022-09-26T22:53:36.588Z,2.03
2022-09-26T22:56:06.493Z,1.00
2022-09-26T22:58:38.320Z,1.08
2022-09-26T23:01:06.549Z,0.75
2022-09-26T23:03:33.708Z,1.33
2022-09-26T23:06:00.496Z,0.95
2022-09-26T23:08:27.398Z,0.80
2022-09-26T23:10:55.410Z,1.00
2022-09-26T23:13:25.842Z,1.00
2022-09-26T23:15:52.610Z,1.15
2022-09-26T23:18:19.357Z,0.93
2022-09-26T23:20:46.185Z,0.90
2022-09-26T23:23:15.139Z,1.30
2022-09-26T23:25:46.257Z,0.70
2022-09-26T23:28:14.803Z,0.90
2022-09-26T23:30:41.829Z,1.20
2022-09-26T23:33:08.848Z,1.30
2022-09-26T23:35:35.695Z,1.00
2022-09-26T23:38:05.059Z,1.35
2022-09-26T23:40:32.587Z,1.13
2022-09-26T23:42:59.488Z,1.30
2022-09-26T23:45:27.025Z,0.55
2022-09-26T23:47:53.773Z,0.95
2022-09-26T23:50:20.695Z,1.42
2022-09-26T23:52:47.398Z,1.77
2022-09-26T23:55:14.218Z,1.27
2022-09-26T23:57:41.015Z,0.88
